LS Concorde — ZDHJ7 — position and weather

sailwx.info

Track history (hours):
 
Tides and Currents Weather Stations Pressure Air Temp Water Temp Dewpoint Dewpoint Depression Visibility Wind Speed Wind Dir Waves Ship Positions

LS Concorde

Last reported at 2016-May-02 18:33 UTC. Time now 2016-May-02 19:22 UTC.
Position N 51°30' E 001°28'.

Length 99 m; draft 6.4 m.

Type: Tanker. MMSI: 236329000.

Date/timePositionNaut miles runAvg speedWind from/ knotsBaromVisibWave heightAir tempDewpointWater temp
2016-May-02 18:33N 51°30' E 001°28'0 0.0
2016-May-02 17:33N 51°30' E 001°28'0 0.0
2016-May-02 16:30N 51°30' E 001°28'2 1.7
2016-May-02 15:33N 51°29' E 001°27'1111.3
2016-May-02 14:34N 51°29' E 001°09'1313.2
2016-May-02 13:33N 51°29' E 000°48'9 8.6
2016-May-02 12:31N 51°31' E 000°33'0 0.0
2016-May-02 11:31N 51°31' E 000°33'0 0.0
2016-May-02 10:31N 51°31' E 000°33'0 0.0
2016-May-02 09:31N 51°31' E 000°33'0 0.0
2016-May-02 08:31N 51°31' E 000°33'0 0.0
2016-May-02 07:31N 51°31' E 000°33'0 0.0
2016-May-02 06:31N 51°31' E 000°33'0 0.0
2016-May-02 05:31N 51°31' E 000°33'0 0.0
2016-May-02 04:31N 51°31' E 000°33'0 0.0
2016-May-02 03:31N 51°31' E 000°33'0 0.0
2016-May-02 02:25N 51°31' E 000°33'0 0.0
2016-May-02 01:31N 51°31' E 000°33'0 0.0
2016-May-02 00:31N 51°31' E 000°33'0 0.0
2016-May-01 23:31N 51°31' E 000°33'0 0.0
2016-May-01 22:31N 51°31' E 000°33'0 0.0
2016-May-01 21:31N 51°31' E 000°33'0 0.0
2016-May-01 20:31N 51°31' E 000°33'1 0.5
2016-May-01 19:34N 51°30' E 000°34'1212.2
2016-May-01 18:33N 51°29' E 000°54'1414.0
2016-May-01 17:33N 51°29' E 001°16'9 9.2
2016-May-01 16:33N 51°27' E 001°30'4 3.5
2016-May-01 15:28N 51°30' E 001°28'0 0.0
2016-May-01 14:31N 51°30' E 001°28'0 0.0
2016-May-01 13:31N 51°30' E 001°28'0 0.1
2016-May-01 12:31N 51°30' E 001°28'0 0.0
2016-May-01 11:31N 51°30' E 001°28'0 0.0
2016-May-01 10:31N 51°30' E 001°28'0 0.0
2016-May-01 09:31N 51°30' E 001°28'0 0.0
2016-May-01 08:31N 51°30' E 001°28'0 0.0
2016-May-01 07:31N 51°30' E 001°28'0 0.0
2016-May-01 06:22N 51°30' E 001°28'0 0.0
2016-May-01 05:31N 51°30' E 001°28'0 0.0
2016-May-01 04:31N 51°30' E 001°28'0 0.0
2016-May-01 03:31N 51°30' E 001°28'0 0.0
2016-May-01 02:31N 51°30' E 001°28'0 0.0
2016-May-01 01:31N 51°30' E 001°28'0 0.0
2016-May-01 00:28N 51°30' E 001°28'0 0.0
2016-Apr-30 23:31N 51°30' E 001°28'0 0.0
2016-Apr-30 22:22N 51°30' E 001°28'1 1.4
2016-Apr-30 21:32N 51°30' E 001°30'0 0.0
2016-Apr-30 20:32N 51°30' E 001°30'0 0.0
2016-Apr-30 19:32N 51°31' E 001°30'1 1.3
2016-Apr-30 18:33N 51°30' E 001°28'0 0.0
2016-Apr-30 17:33N 51°30' E 001°28'0 0.0
2016-Apr-30 16:33N 51°30' E 001°28'0 0.1
2016-Apr-30 15:30N 51°30' E 001°28'0 0.0
2016-Apr-30 14:33N 51°30' E 001°28'1 0.8
2016-Apr-30 13:33N 51°30' E 001°29'0 0.0
2016-Apr-30 12:33N 51°30' E 001°29'0 0.1
2016-Apr-30 11:33N 51°30' E 001°30'0 0.1
2016-Apr-30 10:33N 51°30' E 001°30'0 0.0
2016-Apr-30 09:30N 51°30' E 001°30'0 0.0
2016-Apr-30 08:33N 51°30' E 001°30'0 0.0
2016-Apr-30 07:33N 51°30' E 001°30'1 0.9
2016-Apr-30 06:33N 51°30' E 001°28'0 0.1
2016-Apr-30 05:32N 51°30' E 001°28'0 0.0
2016-Apr-30 04:32N 51°30' E 001°28'0 0.0
2016-Apr-30 03:32N 51°30' E 001°28'0 0.0
2016-Apr-30 02:32N 51°30' E 001°28'0 0.0
2016-Apr-30 01:32N 51°30' E 001°28'0 0.0
2016-Apr-30 00:32N 51°30' E 001°28'0 0.1
2016-Apr-29 23:32N 51°30' E 001°28'0 0.1
2016-Apr-29 22:32N 51°30' E 001°28'0 0.0
2016-Apr-29 21:32N 51°30' E 001°28'0 0.0
2016-Apr-29 20:32N 51°30' E 001°28'0 0.0
2016-Apr-29 19:32N 51°30' E 001°28'0 0.0
2016-Apr-29 18:32N 51°30' E 001°28'0 0.0
2016-Apr-29 17:32N 51°30' E 001°28'0 0.1
2016-Apr-29 16:32N 51°30' E 001°28'0 0.1
2016-Apr-29 15:32N 51°30' E 001°28'0 0.0
2016-Apr-29 14:26N 51°30' E 001°28'0 0.0
2016-Apr-29 13:32N 51°30' E 001°28'0 0.1
2016-Apr-29 12:32N 51°30' E 001°28'0 0.1
2016-Apr-29 11:32N 51°30' E 001°28'0 0.0
2016-Apr-29 10:29N 51°30' E 001°28'0 0.0
2016-Apr-29 09:29N 51°30' E 001°28'0 0.0
2016-Apr-29 08:32N 51°30' E 001°28'0 0.0
2016-Apr-29 07:32N 51°30' E 001°28'0 0.0
2016-Apr-29 06:32N 51°30' E 001°28'0 0.0
2016-Apr-29 05:32N 51°30' E 001°28'0 0.0
2016-Apr-29 04:32N 51°30' E 001°28'0 0.1
2016-Apr-29 03:32N 51°30' E 001°28'0 0.0
2016-Apr-29 02:26N 51°30' E 001°28'0 0.0
2016-Apr-29 01:32N 51°30' E 001°28'0 0.0
2016-Apr-29 00:32N 51°30' E 001°28'0 0.1
2016-Apr-28 23:32N 51°30' E 001°28'1 1.2
2016-Apr-28 22:32N 51°30' E 001°30'0 0.0
2016-Apr-28 21:32N 51°30' E 001°30'0 0.0
2016-Apr-28 20:32N 51°30' E 001°30'0 0.0
2016-Apr-28 19:32N 51°30' E 001°30'0 0.0
2016-Apr-28 18:32N 51°30' E 001°30'1 1.2
2016-Apr-28 17:33N 51°30' E 001°28'0 0.0
2016-Apr-28 16:33N 51°30' E 001°28'0 0.1
2016-Apr-28 15:33N 51°30' E 001°28'0 0.0
2016-Apr-28 14:30N 51°30' E 001°28'0 0.0
2016-Apr-28 13:30N 51°30' E 001°28'0 0.0
2016-Apr-28 12:30N 51°30' E 001°28'0 0.0
2016-Apr-28 11:33N 51°30' E 001°28'0 0.0
2016-Apr-28 10:33N 51°30' E 001°28'0 0.1
2016-Apr-28 09:33N 51°30' E 001°28'0 0.0
2016-Apr-28 08:33N 51°30' E 001°28'0 0.0
2016-Apr-28 07:12N 51°30' E 001°28'0 0.0
2016-Apr-28 05:24N 51°30' E 001°28'0 0.0
2016-Apr-28 04:33N 51°30' E 001°28'0 0.1
2016-Apr-28 03:33N 51°30' E 001°28'3 2.5
2016-Apr-28 02:32N 51°32' E 001°30'0 0.0
2016-Apr-28 01:32N 51°32' E 001°30'0 0.1
2016-Apr-28 00:33N 51°32' E 001°30'3 2.5
2016-Apr-27 23:32N 51°30' E 001°28'0 0.0
2016-Apr-27 22:32N 51°30' E 001°28'0 0.1
2016-Apr-27 21:32N 51°30' E 001°28'0 0.1
2016-Apr-27 20:32N 51°30' E 001°28'0 0.0
2016-Apr-27 19:32N 51°30' E 001°28'0 0.0
2016-Apr-27 18:32N 51°30' E 001°28'0 0.0
2016-Apr-27 17:26N 51°30' E 001°28'2 2.2
2016-Apr-27 16:33N 51°31' E 001°31'0 0.1
2016-Apr-27 15:33N 51°31' E 001°31'0 0.1
2016-Apr-27 14:33N 51°31' E 001°31'0 0.1
2016-Apr-27 13:33N 51°31' E 001°31'0 0.0
2016-Apr-27 12:33N 51°31' E 001°31'0 0.0
2016-Apr-27 11:33N 51°30' E 001°31'2 1.7
2016-Apr-27 10:32N 51°30' E 001°29'0 0.1
2016-Apr-27 09:32N 51°30' E 001°29'0 0.1
2016-Apr-27 08:32N 51°30' E 001°29'0 0.0
2016-Apr-27 07:32N 51°30' E 001°29'0 0.0
2016-Apr-27 06:32N 51°30' E 001°29'0 0.0
2016-Apr-27 05:32N 51°30' E 001°29'0 0.0
2016-Apr-27 04:32N 51°30' E 001°29'0 0.0
2016-Apr-27 03:32N 51°30' E 001°29'0 0.1
2016-Apr-27 02:32N 51°30' E 001°28'0 0.0
2016-Apr-27 01:32N 51°30' E 001°28'0 0.0
2016-Apr-27 00:32N 51°30' E 001°28'0 0.0
2016-Apr-26 23:32N 51°30' E 001°28'0 0.0
2016-Apr-26 22:23N 51°30' E 001°28'0 0.1
2016-Apr-26 21:32N 51°30' E 001°29'0 0.0
2016-Apr-26 20:32N 51°30' E 001°29'0 0.0
2016-Apr-26 19:29N 51°30' E 001°29'0 0.0
2016-Apr-26 18:32N 51°30' E 001°29'0 0.0
2016-Apr-26 17:26N 51°30' E 001°29'0 0.0
2016-Apr-26 16:29N 51°30' E 001°29'0 0.0
2016-Apr-26 15:29N 51°30' E 001°29'0 0.1
2016-Apr-26 14:29N 51°30' E 001°28'0 0.0
2016-Apr-26 13:32N 51°30' E 001°28'0 0.1
2016-Apr-26 12:32N 51°30' E 001°28'0 0.0
2016-Apr-26 11:32N 51°30' E 001°28'0 0.0
2016-Apr-26 10:32N 51°30' E 001°28'0 0.1
2016-Apr-26 09:32N 51°30' E 001°28'0 0.1
2016-Apr-26 08:29N 51°30' E 001°29'0 0.0
2016-Apr-26 07:29N 51°30' E 001°29'0 0.0
2016-Apr-26 06:32N 51°30' E 001°29'0 0.0
2016-Apr-26 05:32N 51°30' E 001°29'0 0.0
2016-Apr-26 04:29N 51°30' E 001°29'0 0.0
2016-Apr-26 03:32N 51°30' E 001°29'0 0.0
2016-Apr-26 02:29N 51°30' E 001°29'0 0.1
2016-Apr-26 01:32N 51°30' E 001°28'0 0.0
2016-Apr-26 00:32N 51°30' E 001°28'0 0.1
2016-Apr-25 23:32N 51°30' E 001°28'0 0.0
2016-Apr-25 22:32N 51°30' E 001°28'0 0.0
2016-Apr-25 21:32N 51°30' E 001°28'0 0.1
2016-Apr-25 20:32N 51°30' E 001°29'0 0.0
2016-Apr-25 19:29N 51°30' E 001°29'2 1.9
2016-Apr-25 18:33N 51°30' E 001°31'0 0.1
2016-Apr-25 17:33N 51°31' E 001°32'1 0.6
2016-Apr-25 16:33N 51°30' E 001°31'1 1.1
2016-Apr-25 15:17N 51°30' E 001°28'0 0.0
2016-Apr-25 14:29N 51°30' E 001°28'0 0.1
2016-Apr-25 13:32N 51°30' E 001°28'0 0.0
2016-Apr-25 12:29N 51°30' E 001°28'0 0.0
2016-Apr-25 11:29N 51°30' E 001°28'0 0.0
2016-Apr-25 10:32N 51°30' E 001°28'0 0.0
2016-Apr-25 09:26N 51°30' E 001°28'0 0.1
2016-Apr-25 08:32N 51°30' E 001°28'3 3.0
2016-Apr-25 07:33N 51°27' E 001°27'1413.8
2016-Apr-25 06:34N 51°30' E 001°05'1514.9
2016-Apr-25 05:34N 51°30' E 000°41'5 4.8
2016-Apr-25 04:32N 51°31' E 000°33'0 0.0
2016-Apr-25 03:29N 51°31' E 000°33'0 0.0
2016-Apr-25 02:32N 51°31' E 000°33'0 0.0
2016-Apr-25 01:32N 51°31' E 000°33'0 0.0
2016-Apr-25 00:32N 51°31' E 000°33'0 0.0
2016-Apr-24 23:32N 51°31' E 000°33'0 0.0
2016-Apr-24 22:29N 51°31' E 000°33'0 0.0
2016-Apr-24 21:32N 51°31' E 000°33'0 0.0
2016-Apr-24 20:32N 51°31' E 000°33'0 0.0
2016-Apr-24 19:29N 51°31' E 000°33'0 0.0
2016-Apr-24 18:32N 51°31' E 000°33'0 0.0
2016-Apr-24 17:32N 51°31' E 000°33'0 0.0
2016-Apr-24 16:32N 51°31' E 000°33'0 0.0
2016-Apr-24 15:32N 51°31' E 000°33'0 0.0
2016-Apr-24 14:32N 51°31' E 000°33'0 0.0
2016-Apr-24 13:32N 51°31' E 000°33'0 0.0
2016-Apr-24 12:32N 51°31' E 000°33'0 0.0
2016-Apr-24 11:32N 51°31' E 000°33'0 0.0
2016-Apr-24 10:32N 51°31' E 000°33'0 0.0
2016-Apr-24 09:32N 51°31' E 000°33'0 0.0
2016-Apr-24 08:32N 51°31' E 000°33'0 0.0
2016-Apr-24 07:32N 51°31' E 000°33'0 0.0
2016-Apr-24 06:32N 51°31' E 000°33'0 0.0
2016-Apr-24 05:29N 51°31' E 000°33'0 0.0
2016-Apr-24 04:32N 51°31' E 000°33'0 0.0
2016-Apr-24 03:32N 51°31' E 000°33'0 0.0
2016-Apr-24 02:32N 51°31' E 000°33'0 0.0
2016-Apr-24 01:33N 51°31' E 000°33'9 8.8
2016-Apr-24 00:34N 51°27' E 000°20'1 0.8
2016-Apr-23 23:34N 51°28' E 000°21'0 0.0
2016-Apr-23 22:34N 51°28' E 000°21'0 0.0
2016-Apr-23 21:34N 51°28' E 000°21'0 0.0
2016-Apr-23 20:33N 51°28' E 000°21'0 0.0
2016-Apr-23 19:34N 51°28' E 000°21'0 0.0
2016-Apr-23 18:34N 51°28' E 000°21'0 0.0
2016-Apr-23 17:34N 51°28' E 000°21'0 0.0
2016-Apr-23 16:34N 51°28' E 000°21'0 0.0
2016-Apr-23 15:34N 51°28' E 000°21'1 0.6
2016-Apr-23 14:33N 51°27' E 000°20'1 1.0
2016-Apr-23 13:34N 51°27' E 000°22'0 0.0
2016-Apr-23 12:34N 51°27' E 000°22'0 0.0
2016-Apr-23 11:34N 51°27' E 000°22'0 0.0
2016-Apr-23 10:34N 51°27' E 000°22'0 0.0
2016-Apr-23 09:34N 51°27' E 000°22'6 5.5
2016-Apr-23 08:34N 51°30' E 000°29'1212.4
2016-Apr-23 07:33N 51°30' E 000°49'1211.8
2016-Apr-23 06:33N 51°29' E 001°08'1111.2
2016-Apr-23 05:34N 51°28' E 001°26'10 9.9
2016-Apr-23 04:33N 51°20' E 001°36'1111.0
2016-Apr-23 03:33N 51°09' E 001°37'1211.9
2016-Apr-23 02:33N 51°01' E 001°51'1110.8
2016-Apr-23 01:32N 51°03' E 002°09'7 4.7
2016-Apr-23 00:06N 51°03' E 002°19'2 3.4
2016-Apr-22 23:33N 51°03' E 002°17'0 0.0
2016-Apr-22 21:32N 51°03' E 002°17'0 0.0
2016-Apr-22 20:28N 51°03' E 002°17'0 0.0
2016-Apr-22 19:28N 51°03' E 002°17'0 0.0
2016-Apr-22 18:33N 51°03' E 002°17'  
Track history (hours):
 
Tides and Currents Weather Stations Pressure Air Temp Water Temp Dewpoint Dewpoint Depression Visibility Wind Speed Wind Dir Waves Ship Positions

LS Concorde

Last reported at 2016-May-02 18:33 UTC. Time now 2016-May-02 19:22 UTC.
Position N 51°30' E 001°28'.

Length 99 m; draft 6.4 m.

Type: Tanker. MMSI: 236329000.

Date/timePositionNaut miles runAvg speedWind from/ knotsBaromVisibWave heightAir tempDewpointWater temp
2016-May-02 18:33N 51°30' E 001°28'0 0.0
2016-May-02 17:33N 51°30' E 001°28'0 0.0
2016-May-02 16:30N 51°30' E 001°28'2 1.7
2016-May-02 15:33N 51°29' E 001°27'1111.3
2016-May-02 14:34N 51°29' E 001°09'1313.2
2016-May-02 13:33N 51°29' E 000°48'9 8.6
2016-May-02 12:31N 51°31' E 000°33'0 0.0
2016-May-02 11:31N 51°31' E 000°33'0 0.0
2016-May-02 10:31N 51°31' E 000°33'0 0.0
2016-May-02 09:31N 51°31' E 000°33'0 0.0
2016-May-02 08:31N 51°31' E 000°33'0 0.0
2016-May-02 07:31N 51°31' E 000°33'0 0.0
2016-May-02 06:31N 51°31' E 000°33'0 0.0
2016-May-02 05:31N 51°31' E 000°33'0 0.0
2016-May-02 04:31N 51°31' E 000°33'0 0.0
2016-May-02 03:31N 51°31' E 000°33'0 0.0
2016-May-02 02:25N 51°31' E 000°33'0 0.0
2016-May-02 01:31N 51°31' E 000°33'0 0.0
2016-May-02 00:31N 51°31' E 000°33'0 0.0
2016-May-01 23:31N 51°31' E 000°33'0 0.0
2016-May-01 22:31N 51°31' E 000°33'0 0.0
2016-May-01 21:31N 51°31' E 000°33'0 0.0
2016-May-01 20:31N 51°31' E 000°33'1 0.5
2016-May-01 19:34N 51°30' E 000°34'1212.2
2016-May-01 18:33N 51°29' E 000°54'1414.0
2016-May-01 17:33N 51°29' E 001°16'9 9.2
2016-May-01 16:33N 51°27' E 001°30'4 3.5
2016-May-01 15:28N 51°30' E 001°28'0 0.0
2016-May-01 14:31N 51°30' E 001°28'0 0.0
2016-May-01 13:31N 51°30' E 001°28'0 0.1
2016-May-01 12:31N 51°30' E 001°28'0 0.0
2016-May-01 11:31N 51°30' E 001°28'0 0.0
2016-May-01 10:31N 51°30' E 001°28'0 0.0
2016-May-01 09:31N 51°30' E 001°28'0 0.0
2016-May-01 08:31N 51°30' E 001°28'0 0.0
2016-May-01 07:31N 51°30' E 001°28'0 0.0
2016-May-01 06:22N 51°30' E 001°28'0 0.0
2016-May-01 05:31N 51°30' E 001°28'0 0.0
2016-May-01 04:31N 51°30' E 001°28'0 0.0
2016-May-01 03:31N 51°30' E 001°28'0 0.0
2016-May-01 02:31N 51°30' E 001°28'0 0.0
2016-May-01 01:31N 51°30' E 001°28'0 0.0
2016-May-01 00:28N 51°30' E 001°28'0 0.0
2016-Apr-30 23:31N 51°30' E 001°28'0 0.0
2016-Apr-30 22:22N 51°30' E 001°28'1 1.4
2016-Apr-30 21:32N 51°30' E 001°30'0 0.0
2016-Apr-30 20:32N 51°30' E 001°30'0 0.0
2016-Apr-30 19:32N 51°31' E 001°30'1 1.3
2016-Apr-30 18:33N 51°30' E 001°28'0 0.0
2016-Apr-30 17:33N 51°30' E 001°28'0 0.0
2016-Apr-30 16:33N 51°30' E 001°28'0 0.1
2016-Apr-30 15:30N 51°30' E 001°28'0 0.0
2016-Apr-30 14:33N 51°30' E 001°28'1 0.8
2016-Apr-30 13:33N 51°30' E 001°29'0 0.0
2016-Apr-30 12:33N 51°30' E 001°29'0 0.1
2016-Apr-30 11:33N 51°30' E 001°30'0 0.1
2016-Apr-30 10:33N 51°30' E 001°30'0 0.0
2016-Apr-30 09:30N 51°30' E 001°30'0 0.0
2016-Apr-30 08:33N 51°30' E 001°30'0 0.0
2016-Apr-30 07:33N 51°30' E 001°30'1 0.9
2016-Apr-30 06:33N 51°30' E 001°28'0 0.1
2016-Apr-30 05:32N 51°30' E 001°28'0 0.0
2016-Apr-30 04:32N 51°30' E 001°28'0 0.0
2016-Apr-30 03:32N 51°30' E 001°28'0 0.0
2016-Apr-30 02:32N 51°30' E 001°28'0 0.0
2016-Apr-30 01:32N 51°30' E 001°28'0 0.0
2016-Apr-30 00:32N 51°30' E 001°28'0 0.1
2016-Apr-29 23:32N 51°30' E 001°28'0 0.1
2016-Apr-29 22:32N 51°30' E 001°28'0 0.0
2016-Apr-29 21:32N 51°30' E 001°28'0 0.0
2016-Apr-29 20:32N 51°30' E 001°28'0 0.0
2016-Apr-29 19:32N 51°30' E 001°28'0 0.0
2016-Apr-29 18:32N 51°30' E 001°28'0 0.0
2016-Apr-29 17:32N 51°30' E 001°28'0 0.1
2016-Apr-29 16:32N 51°30' E 001°28'0 0.1
2016-Apr-29 15:32N 51°30' E 001°28'0 0.0
2016-Apr-29 14:26N 51°30' E 001°28'0 0.0
2016-Apr-29 13:32N 51°30' E 001°28'0 0.1
2016-Apr-29 12:32N 51°30' E 001°28'0 0.1
2016-Apr-29 11:32N 51°30' E 001°28'0 0.0
2016-Apr-29 10:29N 51°30' E 001°28'0 0.0
2016-Apr-29 09:29N 51°30' E 001°28'0 0.0
2016-Apr-29 08:32N 51°30' E 001°28'0 0.0
2016-Apr-29 07:32N 51°30' E 001°28'0 0.0
2016-Apr-29 06:32N 51°30' E 001°28'0 0.0
2016-Apr-29 05:32N 51°30' E 001°28'0 0.0
2016-Apr-29 04:32N 51°30' E 001°28'0 0.1
2016-Apr-29 03:32N 51°30' E 001°28'0 0.0
2016-Apr-29 02:26N 51°30' E 001°28'0 0.0
2016-Apr-29 01:32N 51°30' E 001°28'0 0.0
2016-Apr-29 00:32N 51°30' E 001°28'0 0.1
2016-Apr-28 23:32N 51°30' E 001°28'1 1.2
2016-Apr-28 22:32N 51°30' E 001°30'0 0.0
2016-Apr-28 21:32N 51°30' E 001°30'0 0.0
2016-Apr-28 20:32N 51°30' E 001°30'0 0.0
2016-Apr-28 19:32N 51°30' E 001°30'0 0.0
2016-Apr-28 18:32N 51°30' E 001°30'1 1.2
2016-Apr-28 17:33N 51°30' E 001°28'0 0.0
2016-Apr-28 16:33N 51°30' E 001°28'0 0.1
2016-Apr-28 15:33N 51°30' E 001°28'0 0.0
2016-Apr-28 14:30N 51°30' E 001°28'0 0.0
2016-Apr-28 13:30N 51°30' E 001°28'0 0.0
2016-Apr-28 12:30N 51°30' E 001°28'0 0.0
2016-Apr-28 11:33N 51°30' E 001°28'0 0.0
2016-Apr-28 10:33N 51°30' E 001°28'0 0.1
2016-Apr-28 09:33N 51°30' E 001°28'0 0.0
2016-Apr-28 08:33N 51°30' E 001°28'0 0.0
2016-Apr-28 07:12N 51°30' E 001°28'0 0.0
2016-Apr-28 05:24N 51°30' E 001°28'0 0.0
2016-Apr-28 04:33N 51°30' E 001°28'0 0.1
2016-Apr-28 03:33N 51°30' E 001°28'3 2.5
2016-Apr-28 02:32N 51°32' E 001°30'0 0.0
2016-Apr-28 01:32N 51°32' E 001°30'0 0.1
2016-Apr-28 00:33N 51°32' E 001°30'3 2.5
2016-Apr-27 23:32N 51°30' E 001°28'0 0.0
2016-Apr-27 22:32N 51°30' E 001°28'0 0.1
2016-Apr-27 21:32N 51°30' E 001°28'0 0.1
2016-Apr-27 20:32N 51°30' E 001°28'0 0.0
2016-Apr-27 19:32N 51°30' E 001°28'0 0.0
2016-Apr-27 18:32N 51°30' E 001°28'0 0.0
2016-Apr-27 17:26N 51°30' E 001°28'2 2.2
2016-Apr-27 16:33N 51°31' E 001°31'0 0.1
2016-Apr-27 15:33N 51°31' E 001°31'0 0.1
2016-Apr-27 14:33N 51°31' E 001°31'0 0.1
2016-Apr-27 13:33N 51°31' E 001°31'0 0.0
2016-Apr-27 12:33N 51°31' E 001°31'0 0.0
2016-Apr-27 11:33N 51°30' E 001°31'2 1.7
2016-Apr-27 10:32N 51°30' E 001°29'0 0.1
2016-Apr-27 09:32N 51°30' E 001°29'0 0.1
2016-Apr-27 08:32N 51°30' E 001°29'0 0.0
2016-Apr-27 07:32N 51°30' E 001°29'0 0.0
2016-Apr-27 06:32N 51°30' E 001°29'0 0.0
2016-Apr-27 05:32N 51°30' E 001°29'0 0.0
2016-Apr-27 04:32N 51°30' E 001°29'0 0.0
2016-Apr-27 03:32N 51°30' E 001°29'0 0.1
2016-Apr-27 02:32N 51°30' E 001°28'0 0.0
2016-Apr-27 01:32N 51°30' E 001°28'0 0.0
2016-Apr-27 00:32N 51°30' E 001°28'0 0.0
2016-Apr-26 23:32N 51°30' E 001°28'0 0.0
2016-Apr-26 22:23N 51°30' E 001°28'0 0.1
2016-Apr-26 21:32N 51°30' E 001°29'0 0.0
2016-Apr-26 20:32N 51°30' E 001°29'0 0.0
2016-Apr-26 19:29N 51°30' E 001°29'0 0.0
2016-Apr-26 18:32N 51°30' E 001°29'0 0.0
2016-Apr-26 17:26N 51°30' E 001°29'0 0.0
2016-Apr-26 16:29N 51°30' E 001°29'0 0.0
2016-Apr-26 15:29N 51°30' E 001°29'0 0.1
2016-Apr-26 14:29N 51°30' E 001°28'0 0.0
2016-Apr-26 13:32N 51°30' E 001°28'0 0.1
2016-Apr-26 12:32N 51°30' E 001°28'0 0.0
2016-Apr-26 11:32N 51°30' E 001°28'0 0.0
2016-Apr-26 10:32N 51°30' E 001°28'0 0.1
2016-Apr-26 09:32N 51°30' E 001°28'0 0.1
2016-Apr-26 08:29N 51°30' E 001°29'0 0.0
2016-Apr-26 07:29N 51°30' E 001°29'0 0.0
2016-Apr-26 06:32N 51°30' E 001°29'0 0.0
2016-Apr-26 05:32N 51°30' E 001°29'0 0.0
2016-Apr-26 04:29N 51°30' E 001°29'0 0.0
2016-Apr-26 03:32N 51°30' E 001°29'0 0.0
2016-Apr-26 02:29N 51°30' E 001°29'0 0.1
2016-Apr-26 01:32N 51°30' E 001°28'0 0.0
2016-Apr-26 00:32N 51°30' E 001°28'0 0.1
2016-Apr-25 23:32N 51°30' E 001°28'0 0.0
2016-Apr-25 22:32N 51°30' E 001°28'0 0.0
2016-Apr-25 21:32N 51°30' E 001°28'0 0.1
2016-Apr-25 20:32N 51°30' E 001°29'0 0.0
2016-Apr-25 19:29N 51°30' E 001°29'2 1.9
2016-Apr-25 18:33N 51°30' E 001°31'0 0.1
2016-Apr-25 17:33N 51°31' E 001°32'1 0.6
2016-Apr-25 16:33N 51°30' E 001°31'1 1.1
2016-Apr-25 15:17N 51°30' E 001°28'0 0.0
2016-Apr-25 14:29N 51°30' E 001°28'0 0.1
2016-Apr-25 13:32N 51°30' E 001°28'0 0.0
2016-Apr-25 12:29N 51°30' E 001°28'0 0.0
2016-Apr-25 11:29N 51°30' E 001°28'0 0.0
2016-Apr-25 10:32N 51°30' E 001°28'0 0.0
2016-Apr-25 09:26N 51°30' E 001°28'0 0.1
2016-Apr-25 08:32N 51°30' E 001°28'3 3.0
2016-Apr-25 07:33N 51°27' E 001°27'1413.8
2016-Apr-25 06:34N 51°30' E 001°05'1514.9
2016-Apr-25 05:34N 51°30' E 000°41'5 4.8
2016-Apr-25 04:32N 51°31' E 000°33'0 0.0
2016-Apr-25 03:29N 51°31' E 000°33'0 0.0
2016-Apr-25 02:32N 51°31' E 000°33'0 0.0
2016-Apr-25 01:32N 51°31' E 000°33'0 0.0
2016-Apr-25 00:32N 51°31' E 000°33'0 0.0
2016-Apr-24 23:32N 51°31' E 000°33'0 0.0
2016-Apr-24 22:29N 51°31' E 000°33'0 0.0
2016-Apr-24 21:32N 51°31' E 000°33'0 0.0
2016-Apr-24 20:32N 51°31' E 000°33'0 0.0
2016-Apr-24 19:29N 51°31' E 000°33'0 0.0
2016-Apr-24 18:32N 51°31' E 000°33'0 0.0
2016-Apr-24 17:32N 51°31' E 000°33'0 0.0
2016-Apr-24 16:32N 51°31' E 000°33'0 0.0
2016-Apr-24 15:32N 51°31' E 000°33'0 0.0
2016-Apr-24 14:32N 51°31' E 000°33'0 0.0
2016-Apr-24 13:32N 51°31' E 000°33'0 0.0
2016-Apr-24 12:32N 51°31' E 000°33'0 0.0
2016-Apr-24 11:32N 51°31' E 000°33'0 0.0
2016-Apr-24 10:32N 51°31' E 000°33'0 0.0
2016-Apr-24 09:32N 51°31' E 000°33'0 0.0
2016-Apr-24 08:32N 51°31' E 000°33'0 0.0
2016-Apr-24 07:32N 51°31' E 000°33'0 0.0
2016-Apr-24 06:32N 51°31' E 000°33'0 0.0
2016-Apr-24 05:29N 51°31' E 000°33'0 0.0
2016-Apr-24 04:32N 51°31' E 000°33'0 0.0
2016-Apr-24 03:32N 51°31' E 000°33'0 0.0
2016-Apr-24 02:32N 51°31' E 000°33'0 0.0
2016-Apr-24 01:33N 51°31' E 000°33'9 8.8
2016-Apr-24 00:34N 51°27' E 000°20'1 0.8
2016-Apr-23 23:34N 51°28' E 000°21'0 0.0
2016-Apr-23 22:34N 51°28' E 000°21'0 0.0
2016-Apr-23 21:34N 51°28' E 000°21'0 0.0
2016-Apr-23 20:33N 51°28' E 000°21'0 0.0
2016-Apr-23 19:34N 51°28' E 000°21'0 0.0
2016-Apr-23 18:34N 51°28' E 000°21'0 0.0
2016-Apr-23 17:34N 51°28' E 000°21'0 0.0
2016-Apr-23 16:34N 51°28' E 000°21'0 0.0
2016-Apr-23 15:34N 51°28' E 000°21'1 0.6
2016-Apr-23 14:33N 51°27' E 000°20'1 1.0
2016-Apr-23 13:34N 51°27' E 000°22'0 0.0
2016-Apr-23 12:34N 51°27' E 000°22'0 0.0
2016-Apr-23 11:34N 51°27' E 000°22'0 0.0
2016-Apr-23 10:34N 51°27' E 000°22'0 0.0
2016-Apr-23 09:34N 51°27' E 000°22'6 5.5
2016-Apr-23 08:34N 51°30' E 000°29'1212.4
2016-Apr-23 07:33N 51°30' E 000°49'1211.8
2016-Apr-23 06:33N 51°29' E 001°08'1111.2
2016-Apr-23 05:34N 51°28' E 001°26'10 9.9
2016-Apr-23 04:33N 51°20' E 001°36'1111.0
2016-Apr-23 03:33N 51°09' E 001°37'1211.9
2016-Apr-23 02:33N 51°01' E 001°51'1110.8
2016-Apr-23 01:32N 51°03' E 002°09'7 4.7
2016-Apr-23 00:06N 51°03' E 002°19'2 3.4
2016-Apr-22 23:33N 51°03' E 002°17'0 0.0
2016-Apr-22 21:32N 51°03' E 002°17'0 0.0
2016-Apr-22 20:28N 51°03' E 002°17'0 0.0
2016-Apr-22 19:28N 51°03' E 002°17'0 0.0
2016-Apr-22 18:33N 51°03' E 002°17'  

Dump ship's entire track history